createdAt,value
2022-12-18T00:02:13.551Z,99422.56
2022-12-18T00:04:40.122Z,99426.47
2022-12-18T00:07:06.651Z,99437.97
2022-12-18T00:09:40.081Z,99430.03
2022-12-18T00:14:45.199Z,99421.41
2022-12-18T00:17:11.907Z,99434.50
2022-12-18T00:19:38.387Z,99434.59
2022-12-18T00:22:04.969Z,99436.59
2022-12-18T00:24:31.680Z,99434.75
2022-12-18T00:26:58.122Z,99439.31
2022-12-18T00:29:24.564Z,99444.41
2022-12-18T00:31:51.141Z,99439.34
2022-12-18T00:34:17.666Z,99440.19
2022-12-18T00:36:44.228Z,99441.03
2022-12-18T00:39:12.957Z,99435.53
2022-12-18T00:41:58.063Z,99450.19
2022-12-18T00:44:25.592Z,99448.22
2022-12-18T00:46:52.180Z,99441.19
2022-12-18T00:49:20.330Z,99444.41
2022-12-18T00:51:47.019Z,99437.66
2022-12-18T00:54:13.530Z,99441.84
2022-12-18T00:56:48.465Z,99438.06
2022-12-18T00:59:16.862Z,99427.34
2022-12-18T01:01:43.628Z,99434.91
2022-12-18T01:04:10.411Z,99439.72
2022-12-18T01:06:37.582Z,99427.84
2022-12-18T01:09:04.179Z,99427.53
2022-12-18T01:11:31.385Z,99432.44
2022-12-18T01:13:57.988Z,99433.47
2022-12-18T01:16:24.585Z,99428.03
2022-12-18T01:18:55.570Z,99427.84
2022-12-18T01:21:22.938Z,99431.13
2022-12-18T01:23:53.256Z,99437.22
2022-12-18T01:26:19.880Z,99442.88
2022-12-18T01:28:46.390Z,99446.41
2022-12-18T01:31:21.797Z,99441.53
2022-12-18T01:33:49.686Z,99448.72
2022-12-18T01:36:23.559Z,99452.22
2022-12-18T01:38:50.578Z,99454.22
2022-12-18T01:41:19.346Z,99457.81
2022-12-18T01:43:49.240Z,99456.53
2022-12-18T01:46:17.778Z,99451.38
2022-12-18T01:48:46.365Z,99448.16
2022-12-18T01:51:13.506Z,99447.19
2022-12-18T01:53:42.151Z,99456.34
2022-12-18T01:56:10.285Z,99458.88
2022-12-18T01:58:47.026Z,99457.41
2022-12-18T02:01:13.703Z,99443.75
2022-12-18T02:03:43.679Z,99427.38
2022-12-18T02:06:34.465Z,99438.97
2022-12-18T02:09:12.602Z,99455.84
2022-12-18T02:11:53.736Z,99447.50
2022-12-18T02:14:26.703Z,99441.69
2022-12-18T02:17:06.072Z,99433.41
2022-12-18T02:19:44.287Z,99437.09
2022-12-18T02:22:29.676Z,99447.19
2022-12-18T02:24:59.143Z,99452.81
2022-12-18T02:27:25.874Z,99462.19
2022-12-18T02:29:58.198Z,99456.94
2022-12-18T02:32:31.339Z,99454.63
2022-12-18T02:34:58.697Z,99456.06
2022-12-18T02:37:28.965Z,99453.44
2022-12-18T02:39:57.320Z,99459.69
2022-12-18T02:42:24.789Z,99465.38
2022-12-18T02:44:52.689Z,99465.03
2022-12-18T02:47:25.667Z,99468.50
2022-12-18T02:50:01.294Z,99462.47
2022-12-18T02:52:43.208Z,99467.03
2022-12-18T02:55:33.632Z,99472.72
2022-12-18T02:58:17.904Z,99478.81
2022-12-18T03:01:21.042Z,99472.78
2022-12-18T03:03:53.217Z,99472.31
2022-12-18T03:06:32.980Z,99475.91
2022-12-18T03:09:03.585Z,99469.31
2022-12-18T03:11:52.667Z,99470.25
2022-12-18T03:14:21.597Z,99470.22
2022-12-18T03:16:52.116Z,99473.34
2022-12-18T03:19:22.170Z,99472.84
2022-12-18T03:21:53.170Z,99474.19
2022-12-18T03:24:20.979Z,99484.44
2022-12-18T03:26:51.840Z,99481.81
2022-12-18T03:29:37.910Z,99490.47
2022-12-18T03:32:16.403Z,99502.72
2022-12-18T03:34:43.586Z,99493.53
2022-12-18T03:37:13.042Z,99483.31
2022-12-18T03:39:41.062Z,99488.13
2022-12-18T03:42:16.551Z,99498.22
2022-12-18T03:45:08.899Z,99494.31
2022-12-18T03:47:56.337Z,99483.22
2022-12-18T03:50:57.681Z,99488.81
2022-12-18T03:53:40.642Z,99488.38
2022-12-18T03:56:09.451Z,99491.09
2022-12-18T03:58:42.100Z,99489.00
2022-12-18T04:01:23.152Z,99479.44
2022-12-18T04:03:50.211Z,99476.22
2022-12-18T04:06:19.087Z,99477.16
2022-12-18T04:08:46.967Z,99484.84
2022-12-18T04:11:16.927Z,99479.09
2022-12-18T04:13:45.379Z,99477.50
2022-12-18T04:16:19.542Z,99473.97
2022-12-18T04:18:49.138Z,99477.34
2022-12-18T04:21:16.030Z,99481.88
2022-12-18T04:23:42.862Z,99474.66
2022-12-18T04:26:09.656Z,99481.44
2022-12-18T04:28:45.205Z,99480.34
2022-12-18T04:31:13.469Z,99479.91
2022-12-18T04:33:40.407Z,99486.44
2022-12-18T04:36:07.903Z,99491.81
2022-12-18T04:38:34.954Z,99491.91
2022-12-18T04:41:07.196Z,99492.59
2022-12-18T04:43:34.698Z,99506.41
2022-12-18T04:46:06.336Z,99497.97
2022-12-18T04:48:32.960Z,99488.78
2022-12-18T04:50:59.445Z,99491.19
2022-12-18T04:53:26.425Z,99483.94
2022-12-18T04:56:04.345Z,99477.09
2022-12-18T04:58:30.822Z,99491.88
2022-12-18T05:00:57.274Z,99485.81
2022-12-18T05:03:23.857Z,99488.50
2022-12-18T05:05:51.973Z,99479.72
2022-12-18T05:08:19.158Z,99476.34
2022-12-18T05:10:46.549Z,99483.63
2022-12-18T05:13:13.026Z,99479.56
2022-12-18T05:15:39.621Z,99482.28
2022-12-18T05:18:06.147Z,99473.50
2022-12-18T05:20:33.006Z,99478.00
2022-12-18T05:22:59.496Z,99492.63
2022-12-18T05:25:26.085Z,99494.72
2022-12-18T05:27:52.546Z,99472.97
2022-12-18T05:30:19.069Z,99476.56
2022-12-18T05:32:45.542Z,99489.84
2022-12-18T05:35:12.307Z,99499.06
2022-12-18T05:37:42.954Z,99493.31
2022-12-18T05:40:10.985Z,99499.66
2022-12-18T05:42:37.529Z,99499.53
2022-12-18T05:45:04.833Z,99498.97
2022-12-18T05:47:31.371Z,99491.47
2022-12-18T05:49:57.856Z,99503.81
2022-12-18T05:52:24.415Z,99507.66
2022-12-18T05:54:51.007Z,99500.91
2022-12-18T05:57:17.533Z,99491.25
2022-12-18T05:59:44.112Z,99494.00
2022-12-18T06:02:10.738Z,99500.19
2022-12-18T06:04:37.398Z,99502.81
2022-12-18T06:07:03.903Z,99497.22
2022-12-18T06:09:30.569Z,99495.78
2022-12-18T06:11:57.111Z,99498.56
2022-12-18T06:14:23.627Z,99495.78
2022-12-18T06:16:52.466Z,99501.50
2022-12-18T06:19:18.893Z,99496.69
2022-12-18T06:21:45.574Z,99503.44
2022-12-18T06:24:12.099Z,99500.47
2022-12-18T06:26:39.867Z,99502.47
2022-12-18T06:29:06.818Z,99511.81
2022-12-18T06:31:33.474Z,99506.41
2022-12-18T06:34:03.345Z,99498.44
2022-12-18T06:36:30.651Z,99502.06
2022-12-18T06:38:58.413Z,99509.28
2022-12-18T06:41:24.885Z,99509.97
2022-12-18T06:43:52.853Z,99519.25
2022-12-18T06:46:21.212Z,99514.88
2022-12-18T06:48:49.823Z,99511.28
2022-12-18T06:51:18.273Z,99510.84
2022-12-18T06:53:44.834Z,99522.50
2022-12-18T06:56:11.352Z,99531.13
2022-12-18T06:58:38.965Z,99527.03
2022-12-18T07:01:07.878Z,99523.75
2022-12-18T07:03:34.606Z,99524.44
2022-12-18T07:06:01.093Z,99523.47
2022-12-18T07:08:27.636Z,99520.84
2022-12-18T07:10:56.357Z,99531.72
2022-12-18T07:13:23.284Z,99541.63
2022-12-18T07:15:49.745Z,99540.53
2022-12-18T07:18:16.331Z,99543.22
2022-12-18T07:20:42.872Z,99544.84
2022-12-18T07:23:09.325Z,99550.53
2022-12-18T07:25:36.462Z,99544.16
2022-12-18T07:28:03.494Z,99554.81
2022-12-18T07:30:30.102Z,99553.59
2022-12-18T07:32:58.900Z,99549.69
2022-12-18T07:35:25.567Z,99555.56
2022-12-18T07:37:52.293Z,99564.94
2022-12-18T07:40:18.918Z,99567.22
2022-12-18T07:42:45.387Z,99574.25
2022-12-18T07:45:11.912Z,99578.06
2022-12-18T07:47:38.560Z,99556.50
2022-12-18T07:50:06.272Z,99565.59
2022-12-18T07:52:32.766Z,99575.09
2022-12-18T07:54:59.881Z,99572.94
2022-12-18T07:57:49.521Z,99570.78
2022-12-18T08:00:13.860Z,99571.94
2022-12-18T08:02:40.477Z,99576.41
2022-12-18T08:05:09.206Z,99576.19
2022-12-18T08:07:35.744Z,99574.41
2022-12-18T08:10:02.197Z,99562.72
2022-12-18T08:12:28.716Z,99567.47
2022-12-18T08:14:55.222Z,99561.19
2022-12-18T08:17:21.679Z,99564.41
2022-12-18T08:19:48.193Z,99566.31
2022-12-18T08:22:14.781Z,99568.53
2022-12-18T08:24:41.314Z,99571.19
2022-12-18T08:29:54.212Z,99575.75
2022-12-18T08:32:20.998Z,99568.50
2022-12-18T08:34:47.605Z,99577.63
2022-12-18T08:37:14.104Z,99572.63
2022-12-18T08:39:40.642Z,99577.19
2022-12-18T08:42:25.654Z,99573.66
2022-12-18T08:44:52.144Z,99577.88
2022-12-18T08:47:20.682Z,99572.81
2022-12-18T08:49:47.150Z,99572.47
2022-12-18T08:52:16.434Z,99577.09
2022-12-18T08:54:43.158Z,99572.81
2022-12-18T08:57:09.873Z,99575.63
2022-12-18T08:59:36.326Z,99576.81
2022-12-18T09:02:02.999Z,99577.03
2022-12-18T09:04:29.661Z,99569.94
2022-12-18T09:06:56.135Z,99556.53
2022-12-18T09:09:22.808Z,99563.13
2022-12-18T09:11:49.286Z,99551.88
2022-12-18T09:14:15.742Z,99551.72
2022-12-18T09:16:42.264Z,99552.72
2022-12-18T09:19:09.622Z,99559.06
2022-12-18T09:21:43.360Z,99554.41
2022-12-18T09:24:14.340Z,99551.91
2022-12-18T09:26:40.863Z,99552.78
2022-12-18T09:29:10.117Z,99554.44
2022-12-18T09:31:37.762Z,99545.88
2022-12-18T09:34:04.257Z,99545.13
2022-12-18T09:36:30.926Z,99544.34
2022-12-18T09:38:57.374Z,99539.66
2022-12-18T09:41:42.285Z,99537.03
2022-12-18T09:44:17.068Z,99542.47
2022-12-18T09:47:09.166Z,99540.59
2022-12-18T09:49:40.493Z,99532.97
2022-12-18T09:52:13.009Z,99536.53
2022-12-18T09:54:41.097Z,99532.38
2022-12-18T09:57:13.955Z,99531.50
2022-12-18T09:59:41.522Z,99529.69
2022-12-18T10:02:17.246Z,99524.59
2022-12-18T10:04:44.027Z,99523.34
2022-12-18T10:07:35.023Z,99527.63
2022-12-18T10:10:32.558Z,99530.47
2022-12-18T10:13:05.475Z,99534.56
2022-12-18T10:15:44.547Z,99524.66
2022-12-18T10:18:48.111Z,99529.16
2022-12-18T10:21:19.987Z,99531.84
2022-12-18T10:23:55.824Z,99528.91
2022-12-18T10:26:22.449Z,99540.31
2022-12-18T10:28:49.164Z,99537.97
2022-12-18T10:31:24.722Z,99534.38
2022-12-18T10:33:52.010Z,99528.38
2022-12-18T10:36:18.545Z,99530.81
2022-12-18T10:38:45.243Z,99528.09
2022-12-18T10:41:23.010Z,99536.22
2022-12-18T10:43:49.614Z,99545.47
2022-12-18T10:46:18.457Z,99541.34
2022-12-18T10:48:52.992Z,99538.28
2022-12-18T10:51:34.424Z,99540.63
2022-12-18T10:54:03.566Z,99540.78
2022-12-18T10:56:37.858Z,99541.72
2022-12-18T10:59:10.337Z,99531.66
2022-12-18T11:02:00.279Z,99539.22
2022-12-18T11:04:27.968Z,99539.09
2022-12-18T11:06:55.854Z,99549.88
2022-12-18T11:09:27.686Z,99542.13
2022-12-18T11:11:56.852Z,99526.72
2022-12-18T11:14:29.954Z,99535.00
2022-12-18T11:17:24.430Z,99535.50
2022-12-18T11:19:43.980Z,99517.22
2022-12-18T11:22:34.871Z,99513.91
2022-12-18T11:28:01.445Z,99494.91
2022-12-18T11:30:37.030Z,99495.44
2022-12-18T11:33:14.271Z,99493.13
2022-12-18T11:35:53.767Z,99491.31
2022-12-18T11:38:33.751Z,99497.75
2022-12-18T11:41:05.267Z,99496.03
2022-12-18T11:43:39.948Z,99496.81
2022-12-18T11:46:13.576Z,99490.91
2022-12-18T11:48:47.166Z,99482.22
2022-12-18T11:51:27.247Z,99480.75
2022-12-18T11:53:55.013Z,99472.91
2022-12-18T11:56:31.083Z,99479.03
2022-12-18T11:59:06.545Z,99474.56
2022-12-18T12:01:47.557Z,99476.44
2022-12-18T12:04:23.732Z,99478.31
2022-12-18T12:07:14.413Z,99473.72
2022-12-18T12:10:10.259Z,99469.19
2022-12-18T12:13:04.608Z,99458.81
2022-12-18T12:15:39.647Z,99448.88
2022-12-18T12:18:21.391Z,99453.81
2022-12-18T12:21:09.765Z,99460.03
2022-12-18T12:24:23.889Z,99453.34
2022-12-18T12:27:03.848Z,99456.66
2022-12-18T12:30:00.834Z,99458.16
2022-12-18T12:32:39.316Z,99454.53
2022-12-18T12:35:12.062Z,99445.81
2022-12-18T12:38:05.266Z,99453.41
2022-12-18T12:40:52.566Z,99454.50
2022-12-18T12:43:49.489Z,99449.84
2022-12-18T12:46:19.783Z,99460.97
2022-12-18T12:48:52.366Z,99451.66
2022-12-18T12:51:26.210Z,99451.47
2022-12-18T12:53:53.412Z,99457.28
2022-12-18T12:56:22.131Z,99460.97
2022-12-18T12:59:06.854Z,99460.69
2022-12-18T13:01:58.637Z,99463.34
2022-12-18T13:04:42.804Z,99469.09
2022-12-18T13:07:29.578Z,99469.03
2022-12-18T13:10:35.547Z,99471.09
2022-12-18T13:13:09.072Z,99465.81
2022-12-18T13:15:46.121Z,99467.50
2022-12-18T13:18:20.557Z,99464.88
2022-12-18T13:20:56.335Z,99471.75
2022-12-18T13:23:26.661Z,99468.19
2022-12-18T13:26:11.400Z,99466.63
2022-12-18T13:28:47.561Z,99469.22
2022-12-18T13:31:14.865Z,99464.28
2022-12-18T13:34:09.390Z,99460.03
2022-12-18T13:36:33.433Z,99457.69
2022-12-18T13:39:19.792Z,99460.63
2022-12-18T13:41:54.308Z,99453.38
2022-12-18T13:44:38.565Z,99448.19
2022-12-18T13:47:27.646Z,99447.63
2022-12-18T13:49:54.739Z,99435.31
2022-12-18T13:52:36.233Z,99435.59
2022-12-18T13:55:06.225Z,99443.25
2022-12-18T13:57:39.258Z,99443.22
2022-12-18T14:00:21.315Z,99446.63
2022-12-18T14:02:48.006Z,99444.69
2022-12-18T14:05:28.262Z,99441.47
2022-12-18T14:07:55.564Z,99435.97
2022-12-18T14:10:45.571Z,99441.03
2022-12-18T14:13:11.021Z,99449.16
2022-12-18T14:15:47.709Z,99448.09
2022-12-18T14:18:36.405Z,99456.31
2022-12-18T14:21:04.376Z,99454.72
2022-12-18T14:23:36.685Z,99453.50
2022-12-18T14:26:25.357Z,99460.56
2022-12-18T14:28:52.157Z,99450.50
2022-12-18T14:31:26.534Z,99450.97
2022-12-18T14:33:53.723Z,99459.50
2022-12-18T14:36:28.237Z,99457.38
2022-12-18T14:38:59.483Z,99454.09
2022-12-18T14:41:26.764Z,99456.78
2022-12-18T14:43:54.887Z,99450.16
2022-12-18T14:46:36.541Z,99451.22
2022-12-18T14:49:05.939Z,99452.59
2022-12-18T14:51:34.391Z,99453.25
2022-12-18T14:54:04.959Z,99457.97
2022-12-18T14:56:33.529Z,99456.16
2022-12-18T14:59:15.988Z,99452.13
2022-12-18T15:02:04.290Z,99452.59
2022-12-18T15:04:36.168Z,99456.25
2022-12-18T15:07:14.790Z,99453.91
2022-12-18T15:10:01.139Z,99452.63
2022-12-18T15:12:39.479Z,99456.25
2022-12-18T15:15:06.710Z,99457.22
2022-12-18T15:17:33.347Z,99459.66
2022-12-18T15:20:09.737Z,99454.34
2022-12-18T15:22:37.293Z,99457.56
2022-12-18T15:25:20.814Z,99448.16
2022-12-18T15:27:48.153Z,99452.53
2022-12-18T15:30:20.118Z,99448.00
2022-12-18T15:32:47.734Z,99440.91
2022-12-18T15:35:16.899Z,99442.56
2022-12-18T15:37:43.932Z,99433.03
2022-12-18T15:40:24.748Z,99443.19
2022-12-18T15:43:13.184Z,99443.47
2022-12-18T15:45:40.001Z,99434.72
2022-12-18T15:48:22.210Z,99441.06
2022-12-18T15:50:50.571Z,99444.72
2022-12-18T15:53:17.474Z,99450.63
2022-12-18T15:56:10.178Z,99441.81
2022-12-18T15:58:36.958Z,99452.91
2022-12-18T16:01:04.784Z,99453.50
2022-12-18T16:03:31.417Z,99453.81
2022-12-18T16:05:59.289Z,99462.91
2022-12-18T16:08:26.459Z,99454.25
2022-12-18T16:10:53.000Z,99452.75
2022-12-18T16:13:20.448Z,99453.97
2022-12-18T16:15:47.058Z,99457.31
2022-12-18T16:18:13.799Z,99455.63
2022-12-18T16:20:40.378Z,99450.47
2022-12-18T16:23:06.885Z,99448.94
2022-12-18T16:25:33.757Z,99445.78
2022-12-18T16:28:00.468Z,99437.16
2022-12-18T16:30:32.331Z,99433.19
2022-12-18T16:33:05.094Z,99438.69
2022-12-18T16:35:31.902Z,99440.47
2022-12-18T16:37:58.513Z,99444.44
2022-12-18T16:40:25.628Z,99438.81
2022-12-18T16:43:00.854Z,99445.34
2022-12-18T16:45:27.378Z,99438.50
2022-12-18T16:47:53.862Z,99441.41
2022-12-18T16:50:20.353Z,99438.50
2022-12-18T16:52:46.966Z,99439.72
2022-12-18T16:55:13.479Z,99442.31
2022-12-18T16:57:40.029Z,99444.56
2022-12-18T17:00:07.370Z,99441.09
2022-12-18T17:02:34.201Z,99438.97
2022-12-18T17:05:00.859Z,99434.13
2022-12-18T17:07:28.321Z,99440.81
2022-12-18T17:09:54.992Z,99435.63
2022-12-18T17:12:21.659Z,99429.09
2022-12-18T17:14:48.238Z,99420.78
2022-12-18T17:17:23.766Z,99423.34
2022-12-18T17:19:51.595Z,99422.63
2022-12-18T17:22:18.236Z,99418.81
2022-12-18T17:24:44.770Z,99412.28
2022-12-18T17:27:11.438Z,99410.78
2022-12-18T17:29:41.284Z,99411.69
2022-12-18T17:32:11.832Z,99413.66
2022-12-18T17:34:40.630Z,99405.63
2022-12-18T17:37:07.145Z,99415.31
2022-12-18T17:39:33.672Z,99407.13
2022-12-18T17:42:01.240Z,99412.47
2022-12-18T17:44:27.766Z,99414.88
2022-12-18T17:46:54.374Z,99415.66
2022-12-18T17:49:21.501Z,99407.31
2022-12-18T17:51:48.440Z,99417.31
2022-12-18T17:54:14.996Z,99419.88
2022-12-18T17:56:41.610Z,99422.91
2022-12-18T17:59:08.242Z,99412.91
2022-12-18T18:01:38.569Z,99420.78
2022-12-18T18:04:09.150Z,99423.22
2022-12-18T18:06:38.779Z,99419.59
2022-12-18T18:09:06.698Z,99412.59
2022-12-18T18:11:56.498Z,99409.41
2022-12-18T18:14:23.307Z,99410.47
2022-12-18T18:16:51.990Z,99415.31
2022-12-18T18:19:23.419Z,99407.28
2022-12-18T18:21:51.866Z,99408.97
2022-12-18T18:24:23.166Z,99405.44
2022-12-18T18:26:50.573Z,99397.13
2022-12-18T18:29:20.830Z,99398.97
2022-12-18T18:31:48.361Z,99411.84
2022-12-18T18:34:21.327Z,99408.50
2022-12-18T18:36:47.983Z,99409.88
2022-12-18T18:39:14.906Z,99401.72
2022-12-18T18:41:42.798Z,99384.72
2022-12-18T18:44:16.529Z,99388.34
2022-12-18T18:46:43.286Z,99380.78
2022-12-18T18:49:09.790Z,99386.22
2022-12-18T18:51:36.289Z,99379.25
2022-12-18T18:54:02.908Z,99377.09
2022-12-18T18:59:16.454Z,99388.94
2022-12-18T19:01:43.206Z,99383.78
2022-12-18T19:04:10.050Z,99379.50
2022-12-18T19:06:36.581Z,99395.88
2022-12-18T19:09:04.920Z,99377.66
2022-12-18T19:11:49.863Z,99385.22
2022-12-18T19:14:17.041Z,99377.66
2022-12-18T19:16:45.395Z,99381.19
2022-12-18T19:19:12.927Z,99381.69
2022-12-18T19:21:41.000Z,99386.53
2022-12-18T19:24:07.804Z,99386.03
2022-12-18T19:26:36.060Z,99385.06
2022-12-18T19:29:08.105Z,99379.03
2022-12-18T19:31:36.933Z,99366.72
2022-12-18T19:34:06.471Z,99371.28
2022-12-18T19:36:33.676Z,99374.88
2022-12-18T19:39:01.339Z,99364.88
2022-12-18T19:41:31.098Z,99366.09
2022-12-18T19:43:58.370Z,99356.50
2022-12-18T19:46:25.198Z,99351.34
2022-12-18T19:48:52.325Z,99358.66
2022-12-18T19:51:25.692Z,99354.34
2022-12-18T19:53:58.142Z,99353.16
2022-12-18T19:56:28.722Z,99346.31
2022-12-18T19:58:55.574Z,99334.50
2022-12-18T20:01:23.457Z,99332.00
2022-12-18T20:03:53.628Z,99328.97
2022-12-18T20:06:51.560Z,99328.47
2022-12-18T20:09:19.099Z,99323.91
2022-12-18T20:11:45.919Z,99332.69
2022-12-18T20:14:14.290Z,99329.50
2022-12-18T20:16:43.443Z,99326.53
2022-12-18T20:19:12.513Z,99322.88
2022-12-18T20:21:39.069Z,99322.91
2022-12-18T20:24:07.247Z,99318.16
2022-12-18T20:26:34.008Z,99313.88
2022-12-18T20:29:00.625Z,99302.63
2022-12-18T20:31:27.146Z,99293.69
2022-12-18T20:33:59.575Z,99292.63
2022-12-18T20:36:27.108Z,99283.25
2022-12-18T20:38:58.265Z,99276.16
2022-12-18T20:41:37.871Z,99282.53
2022-12-18T20:44:13.728Z,99280.75
2022-12-18T20:46:56.254Z,99272.25
2022-12-18T20:49:24.363Z,99276.19
2022-12-18T20:51:52.501Z,99288.81
2022-12-18T20:54:19.169Z,99294.59
2022-12-18T20:56:45.683Z,99310.34
2022-12-18T20:59:12.164Z,99305.41
2022-12-18T21:01:40.041Z,99307.72
2022-12-18T21:04:11.755Z,99293.59
2022-12-18T21:06:38.286Z,99308.03
2022-12-18T21:09:04.754Z,99296.34
2022-12-18T21:11:51.626Z,99282.06
2022-12-18T21:14:24.186Z,99264.22
2022-12-18T21:16:54.085Z,99279.00
2022-12-18T21:19:25.574Z,99295.28
2022-12-18T21:21:53.122Z,99289.66
2022-12-18T21:24:20.111Z,99296.81
2022-12-18T21:26:48.585Z,99304.75
2022-12-18T21:29:17.680Z,99296.09
2022-12-18T21:31:45.373Z,99293.50
2022-12-18T21:34:22.761Z,99287.72
2022-12-18T21:36:49.510Z,99295.69
2022-12-18T21:39:16.529Z,99284.50
2022-12-18T21:42:01.663Z,99295.50
2022-12-18T21:44:28.728Z,99310.63
2022-12-18T21:47:00.587Z,99300.22
2022-12-18T21:49:33.277Z,99304.69
2022-12-18T21:52:00.965Z,99307.84
2022-12-18T21:54:28.577Z,99304.94
2022-12-18T21:56:55.877Z,99290.63
2022-12-18T21:59:26.135Z,99297.94
2022-12-18T22:01:54.345Z,99287.75
2022-12-18T22:04:21.425Z,99274.91
2022-12-18T22:06:48.561Z,99278.22
2022-12-18T22:09:17.080Z,99270.59
2022-12-18T22:11:43.705Z,99276.06
2022-12-18T22:14:10.453Z,99278.97
2022-12-18T22:16:37.033Z,99268.56
2022-12-18T22:19:04.781Z,99265.38
2022-12-18T22:21:35.864Z,99270.59
2022-12-18T22:24:07.558Z,99283.44
2022-12-18T22:26:39.869Z,99277.06
2022-12-18T22:29:30.688Z,99278.34
2022-12-18T22:31:59.381Z,99278.63
2022-12-18T22:34:25.911Z,99276.94
2022-12-18T22:36:52.617Z,99279.31
2022-12-18T22:39:26.916Z,99284.47
2022-12-18T22:41:55.599Z,99277.28
2022-12-18T22:44:26.027Z,99265.78
2022-12-18T22:47:05.510Z,99266.06
2022-12-18T22:49:35.210Z,99262.16
2022-12-18T22:52:02.448Z,99260.38
2022-12-18T22:54:29.094Z,99272.91
2022-12-18T22:56:55.632Z,99271.16
2022-12-18T22:59:23.062Z,99273.34
2022-12-18T23:01:51.490Z,99273.25
2022-12-18T23:04:29.065Z,99281.56
2022-12-18T23:07:02.457Z,99275.69
2022-12-18T23:09:28.936Z,99281.91
2022-12-18T23:11:55.401Z,99272.22
2022-12-18T23:14:21.997Z,99288.94
2022-12-18T23:16:48.997Z,99295.16
2022-12-18T23:19:17.262Z,99282.19
2022-12-18T23:21:43.782Z,99285.78
2022-12-18T23:24:10.464Z,99285.22
2022-12-18T23:26:37.291Z,99280.31
2022-12-18T23:29:03.853Z,99274.28
2022-12-18T23:31:32.887Z,99267.31
2022-12-18T23:34:00.859Z,99275.44
2022-12-18T23:36:27.728Z,99272.78
2022-12-18T23:39:00.551Z,99273.63
2022-12-18T23:41:30.108Z,99269.56
2022-12-18T23:43:57.440Z,99265.22
2022-12-18T23:46:29.561Z,99266.09
2022-12-18T23:48:58.184Z,99274.38
2022-12-18T23:51:25.647Z,99265.22
2022-12-18T23:53:53.431Z,99260.06
2022-12-18T23:56:20.529Z,99259.84
2022-12-18T23:58:47.258Z,99267.59
